| time (UTC) | temp F | wind direction | speed MPH | gust MPH | rain 1hr in | rain 24hr in | rain mn in | humidity % | barometer mb |
| 20260902013831 | 72 | 20 | 3.0 | 5.0 | 0.00 | 0.06 | 0.00 | 95 | 1024.5 |
| 20260902013331 | 72 | 20 | 4.0 | 5.0 | 0.00 | 0.06 | 0.00 | 95 | 1024.5 |
| 20260902013142 | 72 | 340 | 1.0 | 3.0 | 0.00 | 0.06 | 0.00 | 95 | 1024.6 |
| 20260902012333 | 72 | 340 | 1.0 | 4.0 | 0.00 | 0.06 | 0.00 | 95 | 1024.6 |
| 20260902011930 | 72 | 342 | 3.0 | 5.0 | 0.00 | 0.06 | 0.00 | 95 | 1024.6 |
| 20260902010831 | 72 | 340 | 4.0 | 5.0 | 0.00 | 0.06 | 0.00 | 95 | 1024.7 |
| 20260902010332 | 72 | 340 | 4.0 | 5.0 | 0.00 | 0.06 | 0.00 | 94 | 1024.7 |
| 20260902010245 | 72 | 342 | 4.0 | 4.0 | 0.00 | 0.06 | 0.00 | 94 | 1024.7 |
| 20260902005330 | 72 | 340 | 0.0 | 0.0 | 0.00 | 0.06 | 0.00 | 94 | 1024.7 |
| 20260902004828 | 73 | 342 | 0.0 | 0.0 | 0.00 | 0.06 | 0.00 | 94 | 1024.7 |
| 20260902004326 | 73 | 340 | 0.0 | 0.0 | 0.00 | 0.06 | 0.00 | 95 | 1024.8 |
| 20260902003824 | 73 | 342 | 0.0 | 0.0 | 0.00 | 0.06 | 0.00 | 95 | 1024.8 |
| 20260902003326 | 73 | 340 | 0.0 | 0.0 | 0.00 | 0.06 | 0.00 | 95 | 1024.7 |
| 20260902002825 | 73 | 340 | 0.0 | 0.0 | 0.00 | 0.06 | 0.00 | 95 | 1024.8 |
| 20260902002323 | 73 | 340 | 0.0 | 0.0 | 0.00 | 0.06 | 0.00 | 95 | 1024.7 |
| 20260902001822 | 73 | 340 | 0.0 | 0.0 | 0.00 | 0.06 | 0.00 | 95 | 1024.7 |
| 20260902001321 | 73 | 342 | 0.0 | 0.0 | 0.00 | 0.06 | 0.00 | 95 | 1024.7 |
| 20260902000817 | 73 | 340 | 0.0 | 0.0 | 0.00 | 0.06 | 0.00 | 95 | 1024.7 |
| 20260902000644 | 73 | 342 | 0.0 | 0.0 | 0.00 | 0.06 | 0.00 | 95 | 1024.6 |
| 20260901235811 | 73 | 340 | 0.0 | 0.0 | 0.00 | 0.06 | 0.06 | 95 | 1024.6 |
| 20260901235308 | 73 | 342 | 0.0 | 0.0 | 0.00 | 0.06 | 0.06 | 95 | 1024.6 |
| 20260901234804 | 73 | 340 | 0.0 | 0.0 | 0.00 | 0.06 | 0.06 | 95 | 1024.6 |
| 20260901234303 | 73 | 340 | 0.0 | 0.0 | 0.00 | 0.06 | 0.06 | 95 | 1024.7 |
| 20260901233802 | 73 | 342 | 0.0 | 0.0 | 0.00 | 0.06 | 0.06 | 95 | 1024.7 |
| 20260901233303 | 73 | 340 | 0.0 | 0.0 | 0.00 | 0.06 | 0.06 | 95 | 1024.8 |
| 20260901232802 | 73 | 340 | 0.0 | 0.0 | 0.00 | 0.06 | 0.06 | 95 | 1024.7 |
| 20260901232644 | 73 | 342 | 0.0 | 2.0 | 0.00 | 0.06 | 0.06 | 95 | 1024.7 |
| 20260901231801 | 73 | 340 | 0.0 | 3.0 | 0.00 | 0.06 | 0.06 | 95 | 1024.7 |
| 20260901231256 | 73 | 340 | 2.0 | 3.0 | 0.00 | 0.06 | 0.06 | 94 | 1024.7 |
| 20260901230751 | 73 | 342 | 0.0 | 3.0 | 0.00 | 0.06 | 0.06 | 95 | 1024.8 |
| 20260901230246 | 73 | 342 | 2.0 | 3.0 | 0.00 | 0.06 | 0.06 | 95 | 1024.8 |
| 20260901225748 | 73 | 340 | 2.0 | 3.0 | 0.00 | 0.06 | 0.06 | 95 | 1024.9 |
| 20260901225246 | 73 | 342 | 2.0 | 3.0 | 0.00 | 0.06 | 0.06 | 95 | 1024.9 |
| 20260901224744 | 73 | 340 | 2.0 | 3.0 | 0.00 | 0.06 | 0.06 | 95 | 1024.9 |
| 20260901224242 | 73 | 342 | 2.0 | 3.0 | 0.00 | 0.06 | 0.06 | 95 | 1024.8 |
| 20260901223735 | 73 | 340 | 2.0 | 4.0 | 0.00 | 0.06 | 0.06 | 95 | 1024.8 |
| 20260901223235 | 73 | 340 | 3.0 | 5.0 | 0.00 | 0.06 | 0.06 | 95 | 1024.8 |
| 20260901222740 | 73 | 340 | 4.0 | 5.0 | 0.00 | 0.06 | 0.06 | 95 | 1024.9 |
| 20260901222235 | 73 | 340 | 4.0 | 5.0 | 0.00 | 0.06 | 0.06 | 95 | 1024.8 |
| 20260901221845 | 73 | 342 | 4.0 | 5.0 | 0.00 | 0.06 | 0.06 | 94 | 1024.8 |
| 20260901221059 | 73 | 342 | 4.0 | 4.0 | 0.00 | 0.06 | 0.06 | 94 | 1024.7 |
| 20260901220231 | 73 | 340 | 4.0 | 4.0 | 0.00 | 0.06 | 0.06 | 94 | 1024.7 |
| 20260901215733 | 73 | 351 | 4.0 | 4.0 | 0.00 | 0.06 | 0.06 | 94 | 1024.6 |
| 20260901215552 | 74 | 351 | 4.0 | 4.0 | 0.00 | 0.06 | 0.06 | 94 | 1024.5 |
| 20260901214730 | 74 | 89 | 3.0 | 3.0 | 0.00 | 0.06 | 0.06 | 94 | 1024.6 |
| 20260901214232 | 74 | 126 | 0.0 | 0.0 | 0.00 | 0.06 | 0.06 | 94 | 1024.4 |
| 20260901213733 | 74 | 126 | 0.0 | 0.0 | 0.00 | 0.06 | 0.06 | 93 | 1024.4 |
| 20260901213232 | 74 | 126 | 0.0 | 0.0 | 0.00 | 0.06 | 0.06 | 93 | 1024.3 |
| 20260901212728 | 74 | 126 | 0.0 | 0.0 | 0.00 | 0.06 | 0.06 | 93 | 1024.3 |
| 20260901212228 | 74 | 126 | 0.0 | 2.0 | 0.00 | 0.06 | 0.06 | 94 | 1024.2 |
| 20260901211725 | 75 | 126 | 1.0 | 2.0 | 0.00 | 0.06 | 0.06 | 93 | 1024.2 |
| 20260901211227 | 75 | 126 | 0.0 | 2.0 | 0.00 | 0.06 | 0.06 | 94 | 1024.1 |
| 20260901210725 | 74 | 126 | 1.0 | 3.0 | 0.00 | 0.06 | 0.06 | 93 | 1024.0 |
| 20260901210223 | 74 | 126 | 2.0 | 5.0 | 0.00 | 0.06 | 0.06 | 93 | 1024.0 |
| 20260901205723 | 74 | 126 | 3.0 | 5.0 | 0.00 | 0.06 | 0.06 | 93 | 1023.9 |
| 20260901205221 | 75 | 126 | 4.0 | 5.0 | 0.00 | 0.06 | 0.06 | 93 | 1023.9 |
| 20260901204722 | 75 | 126 | 4.0 | 5.0 | 0.00 | 0.06 | 0.06 | 93 | 1023.9 |
| 20260901204221 | 75 | 116 | 4.0 | 4.0 | 0.00 | 0.06 | 0.06 | 93 | 1023.7 |
| 20260901203713 | 75 | 117 | 3.0 | 5.0 | 0.00 | 0.06 | 0.06 | 94 | 1023.7 |
| 20260901203212 | 74 | 122 | 4.0 | 5.0 | 0.00 | 0.06 | 0.06 | 93 | 1023.7 |
| 20260901202710 | 75 | 122 | 3.0 | 6.0 | 0.00 | 0.06 | 0.06 | 93 | 1023.7 |
| 20260901202208 | 75 | 117 | 4.0 | 6.0 | 0.00 | 0.06 | 0.06 | 93 | 1023.7 |
| 20260901201705 | 75 | 117 | 4.0 | 6.0 | 0.00 | 0.06 | 0.06 | 93 | 1023.6 |
| 20260901201204 | 75 | 134 | 5.0 | 7.0 | 0.00 | 0.06 | 0.06 | 93 | 1023.6 |
| 20260901200704 | 75 | 132 | 5.0 | 7.0 | 0.00 | 0.06 | 0.06 | 93 | 1023.6 |
| 20260901200202 | 75 | 127 | 5.0 | 6.0 | 0.00 | 0.06 | 0.06 | 93 | 1023.5 |
| 20260901195700 | 75 | 134 | 4.0 | 6.0 | 0.00 | 0.06 | 0.06 | 93 | 1023.5 |
| 20260901195201 | 75 | 141 | 4.0 | 6.0 | 0.00 | 0.06 | 0.06 | 93 | 1023.6 |
| 20260901194656 | 75 | 130 | 4.0 | 5.0 | 0.00 | 0.06 | 0.06 | 93 | 1023.5 |
| 20260901194303 | 75 | 153 | 4.0 | 5.0 | 0.00 | 0.06 | 0.06 | 93 | 1023.4 |
| 20260901193154 | 75 | 172 | 3.0 | 4.0 | 0.00 | 0.06 | 0.06 | 93 | 1023.4 |
| 20260901192647 | 75 | 158 | 2.0 | 4.0 | 0.00 | 0.06 | 0.06 | 94 | 1023.5 |
| 20260901192148 | 75 | 158 | 2.0 | 5.0 | 0.00 | 0.06 | 0.06 | 93 | 1023.4 |
| 20260901191646 | 75 | 174 | 4.0 | 5.0 | 0.00 | 0.06 | 0.06 | 94 | 1023.5 |
| 20260901191144 | 75 | 172 | 4.0 | 5.0 | 0.00 | 0.06 | 0.06 | 93 | 1023.5 |
| 20260901190638 | 75 | 172 | 3.0 | 5.0 | 0.00 | 0.06 | 0.06 | 94 | 1023.4 |
| 20260901190139 | 75 | 171 | 2.0 | 6.0 | 0.00 | 0.06 | 0.06 | 94 | 1023.4 |
| 20260901185638 | 75 | 174 | 3.0 | 6.0 | 0.00 | 0.06 | 0.06 | 93 | 1023.4 |
| 20260901185134 | 75 | 172 | 4.0 | 6.0 | 0.00 | 0.06 | 0.06 | 94 | 1023.4 |
| 20260901184635 | 75 | 170 | 4.0 | 6.0 | 0.00 | 0.06 | 0.06 | 94 | 1023.4 |
| 20260901184449 | 75 | 165 | 4.0 | 6.0 | 0.00 | 0.06 | 0.06 | 94 | 1023.4 |
| 20260901183633 | 75 | 151 | 5.0 | 6.0 | 0.00 | 0.06 | 0.06 | 94 | 1023.4 |
| 20260901183129 | 75 | 158 | 4.0 | 5.0 | 0.00 | 0.06 | 0.06 | 94 | 1023.4 |
| 20260901182621 | 75 | 154 | 4.0 | 5.0 | 0.00 | 0.06 | 0.06 | 94 | 1023.5 |
| 20260901182119 | 75 | 157 | 3.0 | 5.0 | 0.00 | 0.06 | 0.06 | 94 | 1023.5 |
| 20260901181925 | 75 | 150 | 4.0 | 5.0 | 0.00 | 0.06 | 0.06 | 94 | 1023.6 |
| 20260901181120 | 75 | 155 | 4.0 | 5.0 | 0.00 | 0.06 | 0.06 | 94 | 1023.6 |
| 20260901180616 | 75 | 161 | 4.0 | 5.0 | 0.00 | 0.06 | 0.06 | 94 | 1023.6 |
| 20260901180118 | 75 | 153 | 4.0 | 7.0 | 0.00 | 0.06 | 0.06 | 94 | 1023.6 |
| 20260901175615 | 75 | 154 | 5.0 | 7.0 | 0.00 | 0.06 | 0.06 | 94 | 1023.6 |
| 20260901175116 | 75 | 158 | 4.0 | 6.0 | 0.00 | 0.06 | 0.06 | 94 | 1023.6 |
| 20260901174617 | 75 | 151 | 5.0 | 7.0 | 0.00 | 0.06 | 0.06 | 94 | 1023.5 |
| 20260901174116 | 75 | 189 | 4.0 | 7.0 | 0.00 | 0.06 | 0.06 | 94 | 1023.5 |
| 20260901173611 | 75 | 153 | 4.0 | 6.0 | 0.00 | 0.06 | 0.06 | 94 | 1023.4 |
| 20260901173107 | 75 | 151 | 4.0 | 7.0 | 0.00 | 0.06 | 0.06 | 94 | 1023.4 |
| 20260901172605 | 75 | 164 | 6.0 | 7.0 | 0.00 | 0.06 | 0.06 | 93 | 1023.4 |
| 20260901172104 | 75 | 150 | 5.0 | 7.0 | 0.00 | 0.06 | 0.06 | 93 | 1023.5 |
| 20260901171604 | 75 | 140 | 5.0 | 9.0 | 0.00 | 0.06 | 0.06 | 93 | 1023.6 |
| 20260901171105 | 75 | 133 | 6.0 | 10.0 | 0.00 | 0.06 | 0.06 | 93 | 1023.6 |
| 20260901170926 | 75 | 137 | 8.0 | 10.0 | 0.00 | 0.06 | 0.06 | 93 | 1023.5 |
| 20260901170118 | 75 | 136 | 6.0 | 10.0 | 0.00 | 0.06 | 0.06 | 93 | 1023.4 |
| 20260901165605 | 75 | 130 | 9.0 | 11.0 | 0.00 | 0.06 | 0.06 | 93 | 1023.4 |
| 20260901165059 | 75 | 127 | 8.0 | 11.0 | 0.00 | 0.06 | 0.06 | 93 | 1023.4 |
| 20260901164600 | 76 | 140 | 8.0 | 12.0 | 0.00 | 0.06 | 0.06 | 92 | 1023.5 |
| 20260901164054 | 76 | 134 | 8.0 | 12.0 | 0.00 | 0.06 | 0.06 | 90 | 1023.5 |
| 20260901163553 | 77 | 146 | 5.0 | 12.0 | 0.00 | 0.06 | 0.06 | 91 | 1023.5 |
| 20260901163052 | 76 | 106 | 8.0 | 12.0 | 0.00 | 0.06 | 0.06 | 91 | 1023.5 |
| 20260901162914 | 76 | 110 | 8.0 | 12.0 | 0.00 | 0.06 | 0.06 | 91 | 1023.5 |
| 20260901162045 | 77 | 134 | 9.0 | 11.0 | 0.00 | 0.06 | 0.06 | 90 | 1023.5 |
| 20260901161539 | 77 | 108 | 8.0 | 12.0 | 0.00 | 0.06 | 0.06 | 91 | 1023.5 |
| 20260901161346 | 76 | 122 | 9.0 | 12.0 | 0.00 | 0.06 | 0.06 | 91 | 1023.5 |
| 20260901160535 | 77 | 148 | 8.0 | 13.0 | 0.00 | 0.06 | 0.06 | 91 | 1023.6 |
| 20260901160346 | 76 | 113 | 9.0 | 13.0 | 0.00 | 0.06 | 0.06 | 91 | 1023.5 |
| 20260901155534 | 76 | 133 | 8.0 | 12.0 | 0.00 | 0.06 | 0.06 | 90 | 1023.6 |
| 20260901155033 | 77 | 133 | 9.0 | 12.0 | 0.00 | 0.06 | 0.06 | 89 | 1023.5 |
| 20260901154534 | 77 | 120 | 9.0 | 12.0 | 0.00 | 0.06 | 0.06 | 89 | 1023.5 |
| 20260901154033 | 77 | 124 | 7.0 | 13.0 | 0.00 | 0.06 | 0.06 | 90 | 1023.6 |
| 20260901153533 | 77 | 117 | 9.0 | 13.0 | 0.00 | 0.06 | 0.06 | 90 | 1023.5 |
| 20260901153033 | 77 | 132 | 9.0 | 11.0 | 0.00 | 0.06 | 0.06 | 90 | 1023.5 |
| 20260901152532 | 78 | 141 | 6.0 | 11.0 | 0.00 | 0.06 | 0.06 | 88 | 1023.5 |
| 20260901152034 | 78 | 129 | 8.0 | 14.0 | 0.00 | 0.06 | 0.06 | 89 | 1023.5 |
| 20260901151847 | 78 | 95 | 9.0 | 14.0 | 0.00 | 0.06 | 0.06 | 88 | 1023.5 |
| 20260901151034 | 78 | 113 | 7.0 | 11.0 | 0.00 | 0.06 | 0.06 | 89 | 1023.5 |
| 20260901150533 | 78 | 160 | 8.0 | 11.0 | 0.00 | 0.06 | 0.06 | 87 | 1023.6 |
| 20260901150031 | 78 | 160 | 5.0 | 13.0 | 0.00 | 0.06 | 0.06 | 86 | 1023.6 |
| 20260901145531 | 78 | 89 | 8.0 | 13.0 | 0.00 | 0.06 | 0.06 | 87 | 1023.6 |
| 20260901145027 | 78 | 88 | 7.0 | 13.0 | 0.00 | 0.06 | 0.06 | 88 | 1023.6 |
| 20260901144525 | 78 | 102 | 9.0 | 13.0 | 0.00 | 0.06 | 0.06 | 88 | 1023.5 |
| 20260901144025 | 78 | 141 | 8.0 | 13.0 | 0.00 | 0.06 | 0.06 | 87 | 1023.6 |
| 20260901143519 | 78 | 102 | 8.0 | 12.0 | 0.00 | 0.06 | 0.06 | 88 | 1023.6 |
| 20260901143019 | 77 | 88 | 8.0 | 14.0 | 0.00 | 0.06 | 0.06 | 88 | 1023.5 |
| 20260901142836 | 78 | 115 | 8.0 | 14.0 | 0.00 | 0.06 | 0.06 | 88 | 1023.6 |
| 20260901142458 | 78 | 86 | 9.0 | 13.0 | 0.00 | 0.06 | 0.06 | 88 | 1023.7 |
| 20260901141017 | 78 | 103 | 6.0 | 11.0 | 0.00 | 0.06 | 0.06 | 89 | 1023.6 |
| 20260901140617 | 78 | 102 | 7.0 | 11.0 | 0.00 | 0.06 | 0.06 | 89 | 1023.6 |
| 20260901135515 | 77 | 82 | 3.0 | 13.0 | 0.00 | 0.06 | 0.06 | 91 | 1023.6 |
| 20260901135012 | 77 | 179 | 6.0 | 16.0 | 0.00 | 0.06 | 0.06 | 92 | 1023.6 |
| 20260901134511 | 76 | 302 | 5.0 | 16.0 | 0.00 | 0.06 | 0.06 | 93 | 1023.5 |
| 20260901134010 | 76 | 275 | 6.0 | 16.0 | 0.00 | 0.06 | 0.06 | 93 | 1023.6 |
| 20260901133507 | 77 | 237 | 10.0 | 16.0 | 0.00 | 0.06 | 0.06 | 94 | 1023.6 |
| 20260901133322 | 76 | 242 | 10.0 | 17.0 | 0.00 | 0.06 | 0.06 | 94 | 1023.6 |
| 20260901132816 | 76 | 249 | 12.0 | 18.0 | 0.00 | 0.06 | 0.06 | 94 | 1023.6 |
| 20260901132008 | 76 | 249 | 11.0 | 18.0 | 0.00 | 0.06 | 0.06 | 93 | 1023.5 |
| 20260901131507 | 76 | 253 | 9.0 | 16.0 | 0.00 | 0.06 | 0.06 | 93 | 1023.6 |
| 20260901131007 | 77 | 199 | 9.0 | 15.0 | 0.00 | 0.06 | 0.06 | 93 | 1023.6 |
| 20260901130506 | 77 | 247 | 8.0 | 15.0 | 0.00 | 0.06 | 0.06 | 94 | 1023.6 |
| 20260901130004 | 77 | 275 | 9.0 | 16.0 | 0.00 | 0.06 | 0.06 | 94 | 1023.5 |
| 20260901125821 | 77 | 243 | 10.0 | 16.0 | 0.00 | 0.06 | 0.06 | 95 | 1023.4 |
| 20260901125320 | 77 | 246 | 10.0 | 15.0 | 0.00 | 0.06 | 0.06 | 95 | 1023.5 |
| 20260901124506 | 77 | 260 | 9.0 | 14.0 | 0.00 | 0.06 | 0.06 | 96 | 1023.5 |
| 20260901124005 | 76 | 225 | 8.0 | 13.0 | 0.00 | 0.06 | 0.06 | 97 | 1023.5 |
| 20260901123500 | 76 | 253 | 7.0 | 13.0 | 0.00 | 0.06 | 0.06 | 97 | 1023.5 |
| 20260901123320 | 75 | 250 | 6.0 | 13.0 | 0.00 | 0.06 | 0.06 | 96 | 1023.6 |
| 20260901122459 | 75 | 234 | 9.0 | 13.0 | 0.00 | 0.06 | 0.06 | 96 | 1023.6 |
| 20260901121957 | 76 | 260 | 6.0 | 13.0 | 0.00 | 0.06 | 0.06 | 96 | 1023.6 |
| 20260901121455 | 76 | 220 | 7.0 | 10.0 | 0.00 | 0.06 | 0.06 | 96 | 1023.6 |
| 20260901120954 | 76 | 236 | 3.0 | 7.0 | 0.00 | 0.06 | 0.06 | 96 | 1023.6 |
| 20260901120451 | 76 | 163 | 4.0 | 10.0 | 0.00 | 0.06 | 0.06 | 96 | 1023.6 |
| 20260901115946 | 76 | 172 | 6.0 | 10.0 | 0.00 | 0.06 | 0.06 | 96 | 1023.5 |
| 20260901115441 | 76 | 130 | 6.0 | 10.0 | 0.00 | 0.06 | 0.06 | 97 | 1023.6 |
| 20260901114935 | 76 | 155 | 6.0 | 9.0 | 0.00 | 0.06 | 0.06 | 97 | 1023.5 |
| 20260901114750 | 75 | 139 | 6.0 | 9.0 | 0.00 | 0.06 | 0.06 | 98 | 1023.6 |
| 20260901113934 | 75 | 101 | 5.0 | 7.0 | 0.00 | 0.06 | 0.06 | 98 | 1023.6 |
| 20260901113436 | 76 | 274 | 3.0 | 6.0 | 0.00 | 0.06 | 0.06 | 98 | 1023.5 |
| 20260901113247 | 75 | 184 | 1.0 | 6.0 | 0.00 | 0.06 | 0.06 | 98 | 1023.5 |
| 20260901112436 | 76 | 191 | 2.0 | 7.0 | 0.00 | 0.06 | 0.06 | 98 | 1023.5 |
| 20260901112046 | 76 | 68 | 3.0 | 7.0 | 0.00 | 0.06 | 0.06 | 99 | 1023.5 |
| 20260901110932 | 75 | 244 | 4.0 | 5.0 | 0.00 | 0.06 | 0.06 | 99 | 1023.3 |
| 20260901110431 | 75 | 134 | 2.0 | 5.0 | 0.00 | 0.06 | 0.06 | 99 | 1023.3 |
| 20260901105928 | 75 | 134 | 2.0 | 5.0 | 0.00 | 0.06 | 0.06 | 99 | 1023.4 |
| 20260901105427 | 75 | 202 | 2.0 | 5.0 | 0.00 | 0.06 | 0.06 | 99 | 1023.2 |
| 20260901104928 | 74 | 153 | 3.0 | 9.0 | 0.01 | 0.06 | 0.06 | 99 | 1023.2 |
| 20260901104426 | 74 | 191 | 4.0 | 9.0 | 0.01 | 0.06 | 0.06 | 99 | 1023.1 |
| 20260901103923 | 75 | 242 | 4.0 | 6.0 | 0.01 | 0.06 | 0.06 | 99 | 1023.2 |
| 20260901103425 | 75 | 215 | 2.0 | 4.0 | 0.01 | 0.06 | 0.06 | 99 | 1023.2 |
| 20260901102921 | 74 | 213 | 2.0 | 2.0 | 0.01 | 0.06 | 0.06 | 99 | 1023.1 |
| 20260901102420 | 74 | 215 | 0.0 | 3.0 | 0.01 | 0.06 | 0.06 | 99 | 1023.0 |
| 20260901101920 | 74 | 216 | 1.0 | 5.0 | 0.01 | 0.06 | 0.06 | 99 | 1022.9 |
| 20260901101416 | 74 | 216 | 3.0 | 7.0 | 0.01 | 0.06 | 0.06 | 99 | 1022.9 |
| 20260901100929 | 74 | 212 | 5.0 | 7.0 | 0.01 | 0.06 | 0.06 | 99 | 1022.9 |
| 20260901100412 | 74 | 215 | 6.0 | 7.0 | 0.01 | 0.06 | 0.06 | 98 | 1022.9 |
| 20260901095914 | 74 | 247 | 5.0 | 7.0 | 0.01 | 0.06 | 0.06 | 98 | 1022.9 |
| 20260901095412 | 74 | 253 | 5.0 | 7.0 | 0.01 | 0.06 | 0.06 | 99 | 1022.9 |
| 20260901094909 | 74 | 247 | 4.0 | 7.0 | 0.00 | 0.06 | 0.06 | 99 | 1022.8 |
| 20260901094407 | 74 | 257 | 6.0 | 7.0 | 0.00 | 0.06 | 0.06 | 98 | 1022.8 |
| 20260901094223 | 74 | 249 | 5.0 | 9.0 | 0.00 | 0.06 | 0.06 | 98 | 1022.8 |
| 20260901093406 | 74 | 254 | 6.0 | 9.0 | 0.00 | 0.06 | 0.06 | 98 | 1022.8 |
| 20260901092907 | 73 | 232 | 5.0 | 9.0 | 0.00 | 0.06 | 0.06 | 98 | 1022.9 |
| 20260901092406 | 73 | 261 | 6.0 | 9.0 | 0.00 | 0.06 | 0.06 | 98 | 1022.9 |
| 20260901091909 | 73 | 240 | 5.0 | 7.0 | 0.00 | 0.06 | 0.06 | 98 | 1022.8 |
| 20260901091405 | 74 | 257 | 5.0 | 9.0 | 0.00 | 0.06 | 0.06 | 98 | 1022.8 |
| 20260901090905 | 74 | 260 | 6.0 | 9.0 | 0.00 | 0.06 | 0.06 | 98 | 1022.8 |
| 20260901090402 | 74 | 250 | 5.0 | 10.0 | 0.00 | 0.06 | 0.06 | 98 | 1022.7 |
| 20260901085900 | 74 | 246 | 6.0 | 11.0 | 0.00 | 0.06 | 0.06 | 98 | 1022.7 |
| 20260901085401 | 74 | 270 | 6.0 | 11.0 | 0.00 | 0.06 | 0.06 | 98 | 1022.7 |
| 20260901084859 | 74 | 257 | 6.0 | 9.0 | 0.00 | 0.06 | 0.06 | 98 | 1022.7 |
| 20260901084716 | 74 | 257 | 5.0 | 10.0 | 0.00 | 0.06 | 0.06 | 98 | 1022.7 |
| 20260901083859 | 74 | 240 | 6.0 | 10.0 | 0.00 | 0.06 | 0.06 | 98 | 1022.6 |
| 20260901083357 | 74 | 278 | 7.0 | 10.0 | 0.00 | 0.06 | 0.06 | 98 | 1022.7 |
| 20260901082853 | 74 | 282 | 6.0 | 11.0 | 0.00 | 0.06 | 0.06 | 98 | 1022.6 |
| 20260901082351 | 74 | 278 | 6.0 | 11.0 | 0.00 | 0.06 | 0.06 | 98 | 1022.6 |
| 20260901081850 | 74 | 258 | 6.0 | 11.0 | 0.00 | 0.06 | 0.06 | 98 | 1022.6 |
| 20260901081347 | 74 | 251 | 6.0 | 11.0 | 0.00 | 0.06 | 0.06 | 98 | 1022.5 |
| 20260901080845 | 74 | 267 | 7.0 | 11.0 | 0.00 | 0.06 | 0.06 | 98 | 1022.5 |
| 20260901080345 | 74 | 242 | 6.0 | 9.0 | 0.00 | 0.06 | 0.06 | 98 | 1022.5 |
| 20260901075844 | 74 | 244 | 6.0 | 9.0 | 0.00 | 0.06 | 0.06 | 98 | 1022.5 |
| 20260901075345 | 74 | 264 | 6.0 | 9.0 | 0.00 | 0.06 | 0.06 | 98 | 1022.5 |
| 20260901075155 | 74 | 268 | 5.0 | 9.0 | 0.00 | 0.06 | 0.06 | 98 | 1022.4 |
| 20260901074656 | 74 | 271 | 6.0 | 9.0 | 0.00 | 0.06 | 0.06 | 98 | 1022.3 |
| 20260901073835 | 74 | 265 | 5.0 | 7.0 | 0.00 | 0.06 | 0.06 | 98 | 1022.3 |
| 20260901073334 | 74 | 263 | 5.0 | 7.0 | 0.00 | 0.06 | 0.06 | 98 | 1022.3 |
| 20260901072833 | 74 | 268 | 6.0 | 7.0 | 0.00 | 0.06 | 0.06 | 98 | 1022.2 |
| 20260901072334 | 74 | 271 | 5.0 | 7.0 | 0.00 | 0.06 | 0.06 | 98 | 1022.2 |
| 20260901071834 | 74 | 260 | 4.0 | 7.0 | 0.00 | 0.06 | 0.06 | 98 | 1022.3 |
| 20260901071333 | 74 | 257 | 5.0 | 9.0 | 0.00 | 0.06 | 0.06 | 98 | 1022.2 |
| 20260901070833 | 74 | 260 | 5.0 | 9.0 | 0.00 | 0.06 | 0.06 | 98 | 1022.2 |
| 20260901070332 | 74 | 256 | 6.0 | 7.0 | 0.00 | 0.06 | 0.06 | 98 | 1022.1 |
| 20260901065827 | 74 | 256 | 5.0 | 9.0 | 0.00 | 0.06 | 0.06 | 98 | 1022.1 |
| 20260901065322 | 74 | 242 | 6.0 | 9.0 | 0.00 | 0.06 | 0.06 | 98 | 1022.1 |
| 20260901064817 | 74 | 233 | 6.0 | 11.0 | 0.00 | 0.06 | 0.06 | 98 | 1022.2 |
| 20260901064318 | 74 | 257 | 7.0 | 11.0 | 0.00 | 0.06 | 0.06 | 98 | 1022.1 |
| 20260901063912 | 74 | 251 | 6.0 | 11.0 | 0.00 | 0.06 | 0.06 | 98 | 1022.0 |
| 20260901062811 | 74 | 240 | 6.0 | 7.0 | 0.00 | 0.06 | 0.06 | 98 | 1022.1 |
| 20260901062311 | 74 | 242 | 3.0 | 10.0 | 0.00 | 0.06 | 0.06 | 98 | 1022.1 |
| 20260901061808 | 74 | 247 | 5.0 | 10.0 | 0.00 | 0.06 | 0.06 | 98 | 1022.1 |
| 20260901061305 | 74 | 280 | 5.0 | 7.0 | 0.00 | 0.06 | 0.06 | 98 | 1022.2 |
| 20260901061121 | 74 | 268 | 5.0 | 7.0 | 0.00 | 0.06 | 0.06 | 98 | 1022.2 |
| 20260901060647 | 74 | 284 | 3.0 | 6.0 | 0.00 | 0.06 | 0.06 | 98 | 1022.2 |
| 20260901055802 | 74 | 287 | 4.0 | 7.0 | 0.00 | 0.06 | 0.06 | 98 | 1022.3 |
| 20260901055306 | 74 | 274 | 4.0 | 7.0 | 0.00 | 0.06 | 0.06 | 98 | 1022.3 |
| 20260901054802 | 73 | 277 | 5.0 | 7.0 | 0.03 | 0.06 | 0.06 | 98 | 1022.3 |
| 20260901054303 | 73 | 281 | 4.0 | 7.0 | 0.06 | 0.06 | 0.06 | 98 | 1022.2 |
| 20260901053902 | 73 | 296 | 4.0 | 7.0 | 0.06 | 0.06 | 0.06 | 98 | 1022.3 |
| 20260901052757 | 73 | 273 | 5.0 | 10.0 | 0.06 | 0.06 | 0.06 | 98 | 1022.2 |
| 20260901052256 | 73 | 277 | 6.0 | 10.0 | 0.06 | 0.06 | 0.06 | 98 | 1022.2 |
| 20260901051757 | 73 | 268 | 6.0 | 11.0 | 0.06 | 0.06 | 0.06 | 98 | 1022.2 |
| 20260901051255 | 73 | 275 | 7.0 | 13.0 | 0.06 | 0.06 | 0.06 | 98 | 1022.2 |
| 20260901050758 | 73 | 270 | 8.0 | 14.0 | 0.06 | 0.06 | 0.06 | 98 | 1022.2 |
| 20260901050309 | 74 | 270 | 9.0 | 14.0 | 0.06 | 0.06 | 0.06 | 98 | 1022.1 |
| 20260901050126 | 74 | 261 | 10.0 | 15.0 | 0.06 | 0.00 | 0.06 | 98 | 1022.1 |
| 20260901045555 | 74 | 301 | 10.0 | 15.0 | 0.06 | 0.00 | 0.06 | 98 | 1022.0 |
| 20260901044739 | 74 | 212 | 9.0 | 15.0 | 0.02 | 0.00 | 0.02 | 98 | 1022.0 |
| 20260901044237 | 75 | 227 | 12.0 | 16.0 | 0.00 | 0.00 | 0.00 | 98 | 1022.1 |
| 20260901043737 | 75 | 236 | 11.0 | 16.0 | 0.00 | 0.00 | 0.00 | 98 | 1022.1 |
| 20260901043235 | 74 | 210 | 11.0 | 16.0 | 0.00 | 0.00 | 0.00 | 98 | 1022.0 |
| 20260901043053 | 74 | 258 | 8.0 | 13.0 | 0.00 | 0.00 | 0.00 | 98 | 1022.0 |
| 20260901042547 | 74 | 243 | 9.0 | 13.0 | 0.00 | 0.00 | 0.00 | 98 | 1022.0 |
| 20260901041730 | 75 | 240 | 9.0 | 14.0 | 0.00 | 0.00 | 0.00 | 98 | 1022.0 |
| 20260901041230 | 75 | 202 | 10.0 | 14.0 | 0.00 | 0.00 | 0.00 | 98 | 1022.2 |
| 20260901041040 | 75 | 205 | 11.0 | 16.0 | 0.00 | 0.00 | 0.00 | 98 | 1022.2 |
| 20260901040226 | 75 | 250 | 12.0 | 16.0 | 0.00 | 0.00 | 0.00 | 98 | 1022.1 |
| 20260901040035 | 75 | 208 | 9.0 | 14.0 | 0.00 | 0.00 | 0.00 | 98 | 1022.1 |
| 20260901035221 | 75 | 288 | 8.0 | 13.0 | 0.00 | 0.00 | 0.00 | 98 | 1022.3 |
| 20260901034723 | 75 | 298 | 4.0 | 12.0 | 0.00 | 0.00 | 0.00 | 98 | 1022.4 |
| 20260901034222 | 74 | 243 | 7.0 | 11.0 | 0.00 | 0.00 | 0.00 | 98 | 1022.3 |
| 20260901033720 | 74 | 233 | 5.0 | 10.0 | 0.00 | 0.00 | 0.00 | 98 | 1022.3 |
| 20260901033218 | 74 | 268 | 6.0 | 10.0 | 0.00 | 0.00 | 0.00 | 98 | 1022.4 |
| 20260901032715 | 74 | 256 | 5.0 | 9.0 | 0.00 | 0.00 | 0.00 | 98 | 1022.3 |
| 20260901032214 | 74 | 249 | 6.0 | 9.0 | 0.00 | 0.00 | 0.00 | 98 | 1022.4 |
| 20260901031708 | 74 | 251 | 4.0 | 7.0 | 0.00 | 0.00 | 0.00 | 98 | 1022.4 |
| 20260901031206 | 75 | 234 | 5.0 | 7.0 | 0.00 | 0.00 | 0.00 | 98 | 1022.4 |
| 20260901030707 | 74 | 219 | 4.0 | 7.0 | 0.00 | 0.00 | 0.00 | 98 | 1022.4 |
| 20260901030206 | 74 | 227 | 5.0 | 7.0 | 0.00 | 0.00 | 0.00 | 98 | 1022.4 |
| 20260901030023 | 74 | 242 | 5.0 | 7.0 | 0.00 | 0.00 | 0.00 | 98 | 1022.5 |
| 20260901025200 | 74 | 236 | 4.0 | 9.0 | 0.00 | 0.00 | 0.00 | 98 | 1022.5 |
| 20260901025017 | 74 | 223 | 6.0 | 10.0 | 0.00 | 0.00 | 0.00 | 98 | 1022.7 |
| 20260901024156 | 74 | 210 | 7.0 | 10.0 | 0.00 | 0.00 | 0.00 | 97 | 1022.7 |
| 20260901023658 | 74 | 237 | 6.0 | 10.0 | 0.00 | 0.00 | 0.00 | 97 | 1022.7 |
| 20260901023158 | 74 | 220 | 6.0 | 9.0 | 0.00 | 0.00 | 0.00 | 97 | 1022.6 |
| 20260901022658 | 74 | 227 | 6.0 | 9.0 | 0.00 | 0.00 | 0.00 | 97 | 1022.8 |
| 20260901022211 | 74 | 215 | 5.0 | 9.0 | 0.00 | 0.00 | 0.00 | 97 | 1022.7 |
| 20260901021656 | 75 | 213 | 5.0 | 10.0 | 0.00 | 0.00 | 0.00 | 97 | 1022.7 |
| 20260901021155 | 75 | 244 | 6.0 | 10.0 | 0.00 | 0.00 | 0.00 | 97 | 1022.7 |
| 20260901021011 | 75 | 220 | 6.0 | 13.0 | 0.00 | 0.00 | 0.00 | 97 | 1022.7 |
| 20260901020513 | 75 | 246 | 6.0 | 14.0 | 0.00 | 0.00 | 0.00 | 97 | 1022.7 |
| 20260901015656 | 75 | 271 | 4.0 | 14.0 | 0.00 | 0.00 | 0.00 | 97 | 1022.7 |
| 20260901015153 | 75 | 275 | 5.0 | 11.0 | 0.00 | 0.00 | 0.00 | 97 | 1022.8 |
| 20260901014654 | 75 | 267 | 7.0 | 14.0 | 0.00 | 0.00 | 0.00 | 97 | 1022.8 |
| 20260901014152 | 75 | 250 | 7.0 | 14.0 | 0.00 | 0.00 | 0.00 | 97 | 1022.8 |